createdAt,value
2023-01-17T00:02:23.090Z,86.26
2023-01-17T00:05:09.572Z,86.31
2023-01-17T00:07:55.956Z,86.29
2023-01-17T00:10:26.152Z,86.24
2023-01-17T00:12:59.657Z,86.30
2023-01-17T00:15:29.349Z,86.38
2023-01-17T00:17:57.435Z,86.43
2023-01-17T00:20:49.681Z,86.47
2023-01-17T00:23:42.797Z,86.52
2023-01-17T00:26:14.682Z,86.69
2023-01-17T00:28:43.823Z,86.79
2023-01-17T00:31:13.940Z,86.91
2023-01-17T00:33:41.820Z,86.97
2023-01-17T00:36:10.922Z,86.98
2023-01-17T00:38:41.037Z,87.01
2023-01-17T00:41:11.832Z,87.08
2023-01-17T00:43:58.643Z,87.18
2023-01-17T00:46:45.243Z,87.37
2023-01-17T00:49:31.370Z,87.37
2023-01-17T00:52:17.912Z,87.35
2023-01-17T00:55:04.196Z,87.45
2023-01-17T00:57:50.547Z,87.52
2023-01-17T01:00:37.437Z,87.57
2023-01-17T01:03:29.025Z,87.58
2023-01-17T01:06:15.760Z,87.55
2023-01-17T01:09:02.253Z,87.59
2023-01-17T01:11:48.779Z,87.67
2023-01-17T01:14:35.333Z,87.69
2023-01-17T01:17:21.913Z,87.79
2023-01-17T01:20:08.024Z,87.87
2023-01-17T01:22:54.239Z,87.86
2023-01-17T01:25:40.852Z,87.91
2023-01-17T01:28:32.243Z,87.97
2023-01-17T01:31:20.343Z,87.96
2023-01-17T01:33:48.325Z,88.01
2023-01-17T01:36:15.997Z,88.00
2023-01-17T01:38:43.752Z,88.04
2023-01-17T01:41:11.439Z,88.10
2023-01-17T01:43:45.171Z,88.10
2023-01-17T01:46:38.045Z,88.07
2023-01-17T01:49:18.936Z,88.12
2023-01-17T01:51:52.536Z,88.10
2023-01-17T01:54:23.901Z,88.21
2023-01-17T01:56:53.438Z,88.33
2023-01-17T01:59:22.679Z,88.33
2023-01-17T02:01:53.036Z,88.32
2023-01-17T02:04:22.646Z,88.34
2023-01-17T02:06:59.078Z,88.44
2023-01-17T02:09:27.675Z,88.54
2023-01-17T02:11:55.616Z,88.59
2023-01-17T02:14:23.304Z,88.59
2023-01-17T02:17:03.922Z,88.60
2023-01-17T02:19:50.344Z,88.59
2023-01-17T02:22:26.924Z,88.65
2023-01-17T02:25:16.436Z,88.64
2023-01-17T02:28:06.669Z,88.64
2023-01-17T02:30:39.434Z,88.58
2023-01-17T02:33:19.207Z,88.55
2023-01-17T02:36:04.224Z,88.56
2023-01-17T02:38:44.177Z,88.54
2023-01-17T02:41:36.921Z,88.51
2023-01-17T02:44:05.034Z,88.45
2023-01-17T02:46:32.691Z,88.41
2023-01-17T02:49:00.679Z,88.37
2023-01-17T02:51:38.916Z,88.37
2023-01-17T02:54:23.952Z,88.34
2023-01-17T02:57:10.022Z,88.20
2023-01-17T03:00:01.323Z,88.09
2023-01-17T03:02:38.005Z,88.07
2023-01-17T03:05:22.884Z,88.07
2023-01-17T03:07:52.145Z,88.05
2023-01-17T03:10:21.007Z,87.97
2023-01-17T03:12:48.681Z,87.79
2023-01-17T03:15:20.330Z,87.89
2023-01-17T03:17:50.767Z,87.94
2023-01-17T03:20:18.731Z,87.92
2023-01-17T03:22:47.134Z,88.16
2023-01-17T03:25:14.829Z,88.19
2023-01-17T03:27:42.512Z,87.89
2023-01-17T03:30:10.814Z,87.77
2023-01-17T03:32:38.568Z,87.74
2023-01-17T03:35:06.785Z,87.72
2023-01-17T03:37:34.541Z,87.71
2023-01-17T03:40:02.206Z,87.66
2023-01-17T03:42:29.886Z,87.62
2023-01-17T03:44:57.633Z,87.57
2023-01-17T03:47:25.316Z,87.51
2023-01-17T03:49:52.952Z,87.45
2023-01-17T03:52:20.693Z,87.42
2023-01-17T03:54:48.515Z,87.35
2023-01-17T03:57:16.161Z,87.28
2023-01-17T03:59:43.824Z,87.22
2023-01-17T04:02:12.366Z,87.15
2023-01-17T04:04:40.296Z,87.09
2023-01-17T04:07:07.940Z,87.02
2023-01-17T04:09:35.665Z,87.01
2023-01-17T04:12:03.667Z,86.96
2023-01-17T04:14:31.368Z,86.90
2023-01-17T04:16:59.917Z,86.91
2023-01-17T04:19:27.675Z,86.95
2023-01-17T04:21:55.389Z,86.85
2023-01-17T04:24:23.136Z,86.80
2023-01-17T04:26:50.858Z,86.70
2023-01-17T04:29:18.575Z,86.73
2023-01-17T04:31:47.666Z,86.89
2023-01-17T04:34:15.323Z,87.04
2023-01-17T04:36:42.981Z,87.06
2023-01-17T04:39:10.675Z,87.11
2023-01-17T04:41:38.578Z,87.14
2023-01-17T04:44:06.326Z,87.18
2023-01-17T04:46:34.235Z,87.19
2023-01-17T04:49:01.974Z,87.28
2023-01-17T04:51:29.779Z,87.33
2023-01-17T04:53:57.492Z,87.35
2023-01-17T04:56:25.161Z,87.33
2023-01-17T04:58:52.855Z,87.21
2023-01-17T05:01:20.684Z,87.21
2023-01-17T05:03:48.434Z,87.37
2023-01-17T05:06:16.116Z,87.46
2023-01-17T05:08:43.891Z,87.49
2023-01-17T05:11:11.529Z,87.53
2023-01-17T05:13:39.246Z,87.56
2023-01-17T05:16:07.175Z,87.60
2023-01-17T05:18:34.888Z,87.73
2023-01-17T05:21:03.380Z,87.75
2023-01-17T05:23:31.196Z,87.78
2023-01-17T05:25:59.404Z,87.77
2023-01-17T05:28:27.161Z,87.76
2023-01-17T05:30:54.870Z,87.75
2023-01-17T05:33:22.553Z,87.77
2023-01-17T05:35:50.579Z,87.78
2023-01-17T05:38:18.356Z,87.81
2023-01-17T05:40:46.089Z,87.86
2023-01-17T05:43:13.802Z,87.90
2023-01-17T05:45:41.559Z,87.92
2023-01-17T05:48:09.534Z,88.00
2023-01-17T05:50:38.181Z,87.99
2023-01-17T05:53:09.092Z,88.00
2023-01-17T05:55:37.932Z,88.00
2023-01-17T05:58:07.075Z,87.99
2023-01-17T06:00:35.056Z,88.18
2023-01-17T06:03:02.726Z,88.85
2023-01-17T06:05:30.799Z,89.09
2023-01-17T06:07:58.580Z,88.12
2023-01-17T06:10:27.006Z,87.25
2023-01-17T06:13:09.733Z,86.54
2023-01-17T06:15:38.838Z,85.62
2023-01-17T06:18:11.223Z,85.63
2023-01-17T06:20:39.645Z,84.61
2023-01-17T06:23:11.228Z,84.35
2023-01-17T06:25:40.988Z,83.96
2023-01-17T06:28:08.613Z,83.53
2023-01-17T06:30:36.495Z,82.94
2023-01-17T06:33:05.006Z,82.01
2023-01-17T06:35:33.337Z,81.54
2023-01-17T06:38:01.056Z,80.62
2023-01-17T06:40:29.252Z,80.68
2023-01-17T06:43:01.813Z,80.51
2023-01-17T06:45:31.842Z,80.21
2023-01-17T06:48:04.148Z,80.24
2023-01-17T06:50:32.685Z,79.69
2023-01-17T06:53:02.816Z,79.14
2023-01-17T06:55:33.726Z,78.88
2023-01-17T06:58:03.094Z,79.24
2023-01-17T07:00:35.168Z,79.85
2023-01-17T07:03:03.352Z,80.20
2023-01-17T07:05:31.127Z,80.60
2023-01-17T07:07:58.851Z,80.94
2023-01-17T07:10:26.491Z,81.13
2023-01-17T07:12:59.702Z,81.48
2023-01-17T07:15:27.859Z,81.86
2023-01-17T07:17:55.590Z,82.58
2023-01-17T07:20:23.232Z,82.53
2023-01-17T07:22:50.891Z,83.19
2023-01-17T07:25:20.121Z,84.01
2023-01-17T07:27:47.916Z,84.30
2023-01-17T07:30:16.061Z,83.89
2023-01-17T07:32:43.735Z,84.38
2023-01-17T07:35:11.396Z,84.11
2023-01-17T07:37:39.216Z,84.16
2023-01-17T07:40:07.284Z,83.34
2023-01-17T07:42:34.911Z,80.41
2023-01-17T07:45:02.659Z,78.72
2023-01-17T07:47:30.357Z,77.18
2023-01-17T07:49:58.177Z,76.07
2023-01-17T07:52:25.882Z,74.86
2023-01-17T07:54:53.752Z,74.82
2023-01-17T07:57:21.577Z,74.64
2023-01-17T07:59:52.620Z,74.62
2023-01-17T08:02:22.324Z,74.26
2023-01-17T08:04:50.155Z,74.52
2023-01-17T08:07:17.905Z,74.76
2023-01-17T08:09:49.563Z,75.18
2023-01-17T08:12:17.609Z,74.34
2023-01-17T08:14:45.301Z,74.24
2023-01-17T08:17:16.644Z,74.28
2023-01-17T08:19:44.931Z,73.93
2023-01-17T08:22:12.689Z,73.26
2023-01-17T08:24:40.499Z,72.78
2023-01-17T08:27:09.109Z,73.45
2023-01-17T08:29:37.172Z,72.74
2023-01-17T08:32:05.009Z,74.14
2023-01-17T08:34:33.409Z,75.40
2023-01-17T08:37:01.093Z,75.77
2023-01-17T08:39:28.828Z,73.82
2023-01-17T08:41:57.404Z,70.63
2023-01-17T08:44:25.166Z,68.37
2023-01-17T08:46:52.961Z,66.78
2023-01-17T08:49:20.657Z,65.58
2023-01-17T08:51:48.411Z,66.16
2023-01-17T08:54:16.702Z,66.33
2023-01-17T08:56:44.511Z,66.44
2023-01-17T08:59:12.572Z,66.13
2023-01-17T09:01:46.101Z,65.39
2023-01-17T09:04:14.429Z,66.06
2023-01-17T09:06:45.420Z,66.46
2023-01-17T09:09:13.725Z,66.06
2023-01-17T09:11:41.627Z,66.00
2023-01-17T09:14:12.542Z,65.47
2023-01-17T09:16:40.638Z,65.24
2023-01-17T09:19:09.085Z,65.54
2023-01-17T09:21:36.777Z,66.06
2023-01-17T09:24:04.513Z,66.41
2023-01-17T09:26:32.311Z,66.85
2023-01-17T09:29:00.160Z,67.24
2023-01-17T09:31:27.873Z,67.78
2023-01-17T09:33:57.210Z,67.74
2023-01-17T09:36:28.893Z,67.89
2023-01-17T09:38:58.168Z,67.90
2023-01-17T09:41:35.227Z,68.36
2023-01-17T09:44:08.209Z,69.44
2023-01-17T09:46:42.837Z,69.23
2023-01-17T09:49:39.358Z,69.02
2023-01-17T09:52:10.259Z,68.67
2023-01-17T10:06:19.210Z,68.90
2023-01-17T10:09:02.932Z,68.89
2023-01-17T10:12:10.899Z,69.06
2023-01-17T10:15:02.311Z,69.12
2023-01-17T10:17:35.765Z,68.94
2023-01-17T10:20:39.146Z,68.78
2023-01-17T10:23:24.580Z,68.51
2023-01-17T10:25:52.748Z,68.51
2023-01-17T10:28:30.987Z,68.57
2023-01-17T10:31:03.459Z,68.12
2023-01-17T10:33:47.092Z,68.02
2023-01-17T10:36:21.192Z,68.31
2023-01-17T10:38:51.701Z,68.15
2023-01-17T10:41:57.318Z,68.08
2023-01-17T10:44:29.582Z,67.87
2023-01-17T10:46:58.807Z,67.79
2023-01-17T10:49:27.643Z,67.81
2023-01-17T10:52:02.969Z,68.09
2023-01-17T10:55:07.983Z,68.39
2023-01-17T10:57:41.069Z,68.71
2023-01-17T11:00:45.694Z,69.30
2023-01-17T11:03:15.343Z,69.67
2023-01-17T11:05:42.468Z,69.69
2023-01-17T11:08:13.995Z,70.03
2023-01-17T11:10:46.480Z,70.41
2023-01-17T11:13:39.641Z,70.36
2023-01-17T11:16:09.660Z,69.51
2023-01-17T11:18:38.880Z,68.67
2023-01-17T11:21:11.356Z,68.84
2023-01-17T11:23:44.434Z,69.11
2023-01-17T11:26:22.282Z,70.25
2023-01-17T11:28:48.575Z,70.43
2023-01-17T11:31:15.845Z,69.88
2023-01-17T11:33:47.647Z,69.62
2023-01-17T11:36:21.640Z,69.01
2023-01-17T11:39:02.073Z,68.30
2023-01-17T11:41:39.909Z,68.80
2023-01-17T11:44:34.646Z,69.15
2023-01-17T11:47:13.233Z,68.08
2023-01-17T11:49:41.515Z,67.73
2023-01-17T11:52:20.467Z,68.20
2023-01-17T11:54:47.838Z,68.87
2023-01-17T11:57:27.488Z,69.32
2023-01-17T12:00:18.614Z,69.25
2023-01-17T12:03:20.000Z,69.71
2023-01-17T12:06:07.260Z,70.04
2023-01-17T12:08:44.336Z,71.52
2023-01-17T12:11:25.202Z,71.53
2023-01-17T12:14:00.635Z,70.43
2023-01-17T12:17:03.893Z,69.44
2023-01-17T12:20:00.154Z,68.83
2023-01-17T12:22:38.504Z,68.54
2023-01-17T12:25:24.087Z,67.95
2023-01-17T12:28:45.542Z,67.91
2023-01-17T12:31:32.719Z,68.01
2023-01-17T12:34:17.830Z,68.05
2023-01-17T12:36:56.895Z,68.13
2023-01-17T12:39:32.435Z,68.57
2023-01-17T12:42:20.561Z,68.83
2023-01-17T12:44:57.106Z,69.41
2023-01-17T12:47:23.803Z,70.10
2023-01-17T12:50:22.002Z,70.57
2023-01-17T12:52:54.313Z,71.47
2023-01-17T12:55:51.187Z,70.86
2023-01-17T12:58:28.644Z,69.91
2023-01-17T13:01:06.698Z,70.07
2023-01-17T13:04:02.564Z,70.76
2023-01-17T13:06:57.619Z,70.25
2023-01-17T13:09:24.147Z,68.81
2023-01-17T13:12:02.611Z,67.44
2023-01-17T13:14:28.968Z,66.82
2023-01-17T13:16:59.709Z,66.42
2023-01-17T13:19:54.060Z,65.63
2023-01-17T13:22:23.399Z,64.98
2023-01-17T13:25:14.325Z,64.78
2023-01-17T13:28:06.329Z,64.14
2023-01-17T13:30:49.008Z,63.55
2023-01-17T13:33:34.158Z,63.62
2023-01-17T13:36:09.359Z,63.91
2023-01-17T13:38:56.817Z,64.02
2023-01-17T13:41:54.130Z,64.26
2023-01-17T13:44:26.930Z,64.46
2023-01-17T13:47:03.527Z,64.92
2023-01-17T13:49:33.433Z,65.91
2023-01-17T13:52:20.119Z,66.11
2023-01-17T13:54:49.136Z,67.64
2023-01-17T13:57:39.338Z,67.22
2023-01-17T14:00:15.733Z,67.37
2023-01-17T14:02:42.931Z,67.76
2023-01-17T14:05:17.763Z,68.17
2023-01-17T14:07:47.197Z,68.98
2023-01-17T14:10:33.724Z,68.91
2023-01-17T14:13:00.668Z,69.36
2023-01-17T14:15:30.571Z,69.72
2023-01-17T14:18:04.098Z,69.94
2023-01-17T14:20:39.587Z,70.26
2023-01-17T14:23:27.475Z,69.98
2023-01-17T14:25:58.592Z,70.18
2023-01-17T14:28:28.715Z,70.06
2023-01-17T14:30:57.423Z,70.14
2023-01-17T14:33:34.096Z,70.14
2023-01-17T14:36:04.147Z,70.08
2023-01-17T14:38:32.928Z,70.23
2023-01-17T14:41:21.045Z,70.42
2023-01-17T14:43:49.789Z,70.72
2023-01-17T14:46:23.268Z,71.27
2023-01-17T14:48:51.726Z,70.75
2023-01-17T14:51:24.119Z,70.61
2023-01-17T14:54:02.436Z,70.97
2023-01-17T14:56:30.708Z,71.16
2023-01-17T14:59:20.418Z,71.30
2023-01-17T15:02:07.205Z,71.39
2023-01-17T15:04:38.346Z,71.58
2023-01-17T15:07:04.685Z,71.77
2023-01-17T15:09:36.596Z,71.99
2023-01-17T15:12:03.576Z,72.99
2023-01-17T15:14:37.357Z,73.19
2023-01-17T15:17:25.687Z,72.36
2023-01-17T15:20:02.693Z,71.33
2023-01-17T15:22:29.546Z,71.54
2023-01-17T15:24:57.827Z,71.18
2023-01-17T15:27:24.907Z,71.19
2023-01-17T15:29:51.686Z,71.50
2023-01-17T15:32:24.065Z,71.82
2023-01-17T15:34:51.879Z,72.11
2023-01-17T15:37:39.898Z,72.44
2023-01-17T15:40:19.067Z,72.84
2023-01-17T15:42:55.951Z,72.97
2023-01-17T15:45:27.555Z,73.19
2023-01-17T15:47:54.069Z,73.41
2023-01-17T15:50:25.105Z,73.66
2023-01-17T15:52:52.927Z,73.90
2023-01-17T15:55:39.989Z,74.11
2023-01-17T15:58:26.989Z,74.35
2023-01-17T16:00:54.224Z,74.66
2023-01-17T16:03:31.064Z,74.97
2023-01-17T16:05:59.792Z,75.15
2023-01-17T16:08:38.478Z,75.54
2023-01-17T16:11:06.635Z,75.57
2023-01-17T16:13:37.867Z,75.85
2023-01-17T16:16:20.564Z,75.81
2023-01-17T16:18:48.267Z,76.08
2023-01-17T16:21:19.123Z,76.38
2023-01-17T16:23:45.849Z,76.44
2023-01-17T16:26:12.241Z,76.20
2023-01-17T16:28:38.577Z,76.14
2023-01-17T16:31:05.334Z,76.25
2023-01-17T16:33:31.956Z,76.58
2023-01-17T16:35:58.245Z,76.39
2023-01-17T16:38:24.666Z,76.29
2023-01-17T16:40:51.247Z,76.31
2023-01-17T16:43:18.742Z,76.58
2023-01-17T16:45:49.812Z,76.77
2023-01-17T16:48:18.967Z,76.58
2023-01-17T16:50:49.763Z,76.38
2023-01-17T16:53:20.906Z,76.29
2023-01-17T16:55:50.283Z,76.23
2023-01-17T16:58:17.279Z,76.14
2023-01-17T17:00:43.564Z,76.36
2023-01-17T17:03:16.068Z,77.02
2023-01-17T17:05:44.369Z,77.61
2023-01-17T17:08:10.949Z,76.93
2023-01-17T17:10:37.276Z,76.66
2023-01-17T17:13:03.763Z,76.98
2023-01-17T17:15:30.166Z,77.92
2023-01-17T17:17:56.553Z,77.40
2023-01-17T17:20:25.082Z,77.19
2023-01-17T17:22:51.730Z,77.57
2023-01-17T17:25:18.640Z,76.94
2023-01-17T17:27:45.139Z,77.50
2023-01-17T17:30:12.057Z,76.73
2023-01-17T17:32:38.546Z,76.78
2023-01-17T17:35:05.704Z,76.30
2023-01-17T17:37:31.975Z,75.20
2023-01-17T17:39:58.332Z,74.31
2023-01-17T17:42:24.960Z,73.69
2023-01-17T17:44:51.553Z,72.54
2023-01-17T17:47:17.825Z,71.87
2023-01-17T17:49:44.162Z,73.32
2023-01-17T17:52:10.555Z,73.36
2023-01-17T17:54:36.861Z,73.71
2023-01-17T17:57:03.510Z,73.92
2023-01-17T17:59:30.590Z,74.10
2023-01-17T18:01:59.052Z,73.29
2023-01-17T18:04:26.340Z,73.29
2023-01-17T18:06:56.882Z,73.53
2023-01-17T18:09:23.463Z,73.79
2023-01-17T18:11:49.757Z,73.54
2023-01-17T18:14:17.005Z,73.73
2023-01-17T18:16:44.085Z,73.93
2023-01-17T18:19:16.712Z,74.35
2023-01-17T18:21:43.492Z,74.71
2023-01-17T18:24:12.218Z,74.83
2023-01-17T18:26:47.590Z,75.00
2023-01-17T18:29:15.858Z,75.39
2023-01-17T18:31:43.551Z,75.52
2023-01-17T18:34:13.352Z,75.79
2023-01-17T18:36:40.274Z,75.96
2023-01-17T18:39:12.938Z,75.97
2023-01-17T18:41:39.251Z,75.94
2023-01-17T18:44:06.568Z,76.22
2023-01-17T18:46:34.208Z,76.20
2023-01-17T18:49:00.637Z,76.52
2023-01-17T18:51:29.263Z,76.99
2023-01-17T18:53:55.704Z,77.21
2023-01-17T18:56:22.493Z,77.56
2023-01-17T18:58:50.239Z,78.17
2023-01-17T19:01:21.983Z,78.28
2023-01-17T19:03:50.728Z,78.37
2023-01-17T19:06:20.254Z,78.37
2023-01-17T19:08:48.543Z,78.65
2023-01-17T19:11:14.897Z,78.57
2023-01-17T19:13:41.342Z,78.39
2023-01-17T19:16:12.865Z,78.84
2023-01-17T19:18:39.271Z,78.96
2023-01-17T19:21:11.692Z,79.22
2023-01-17T19:23:38.797Z,80.53
2023-01-17T19:26:07.894Z,80.92
2023-01-17T19:28:41.790Z,79.80
2023-01-17T19:31:14.668Z,79.05
2023-01-17T19:33:43.237Z,78.13
2023-01-17T19:36:15.395Z,77.87
2023-01-17T19:38:49.440Z,78.04
2023-01-17T19:41:26.052Z,78.18
2023-01-17T19:44:05.755Z,78.65
2023-01-17T19:46:33.042Z,79.50
2023-01-17T19:48:59.811Z,79.79
2023-01-17T19:51:27.381Z,79.90
2023-01-17T19:53:55.841Z,80.22
2023-01-17T19:56:24.658Z,80.17
2023-01-17T19:58:51.664Z,80.48
2023-01-17T20:01:25.921Z,80.23
2023-01-17T20:03:52.712Z,80.15
2023-01-17T20:06:22.114Z,80.27
2023-01-17T20:08:48.909Z,84.28
2023-01-17T20:11:19.022Z,83.93
2023-01-17T20:13:47.148Z,78.21
2023-01-17T20:16:15.961Z,72.44
2023-01-17T20:18:43.466Z,67.08
2023-01-17T20:21:16.423Z,65.52
2023-01-17T20:23:43.879Z,63.24
2023-01-17T20:26:11.183Z,61.89
2023-01-17T20:28:39.824Z,60.53
2023-01-17T20:31:11.987Z,58.92
2023-01-17T20:33:39.515Z,55.74
2023-01-17T20:36:10.915Z,57.03
2023-01-17T20:38:44.582Z,58.74
2023-01-17T20:41:13.800Z,60.38
2023-01-17T20:43:41.900Z,62.20
2023-01-17T20:46:08.992Z,65.80
2023-01-17T20:48:37.106Z,67.17
2023-01-17T20:51:11.073Z,66.36
2023-01-17T20:53:39.328Z,65.27
2023-01-17T20:56:08.152Z,64.59
2023-01-17T20:58:34.771Z,64.77
2023-01-17T21:01:01.404Z,65.63
2023-01-17T21:03:28.532Z,66.01
2023-01-17T21:06:03.840Z,66.96
2023-01-17T21:08:32.509Z,67.66
2023-01-17T21:10:59.078Z,68.28
2023-01-17T21:13:25.853Z,68.81
2023-01-17T21:15:53.043Z,69.25
2023-01-17T21:18:21.153Z,69.55
2023-01-17T21:20:48.137Z,69.94
2023-01-17T21:23:18.066Z,70.39
2023-01-17T21:25:55.682Z,70.37
2023-01-17T21:28:24.169Z,70.51
2023-01-17T21:30:51.394Z,71.07
2023-01-17T21:33:19.228Z,71.24
2023-01-17T21:35:46.031Z,71.94
2023-01-17T21:38:13.627Z,72.81
2023-01-17T21:40:40.609Z,73.21
2023-01-17T21:43:07.273Z,73.35
2023-01-17T21:45:37.870Z,73.79
2023-01-17T21:48:06.047Z,73.97
2023-01-17T21:50:33.837Z,74.55
2023-01-17T21:53:00.245Z,74.65
2023-01-17T21:55:45.769Z,75.54
2023-01-17T21:58:46.621Z,76.19
2023-01-17T22:01:21.659Z,76.62
2023-01-17T22:03:55.081Z,77.21
2023-01-17T22:06:23.802Z,77.84
2023-01-17T22:08:50.181Z,77.64
2023-01-17T22:11:19.591Z,77.54
2023-01-17T22:13:46.690Z,77.70
2023-01-17T22:16:15.110Z,78.02
2023-01-17T22:18:42.759Z,79.06
2023-01-17T22:21:19.268Z,79.28
2023-01-17T22:23:57.251Z,80.19
2023-01-17T22:26:28.916Z,80.52
2023-01-17T22:28:58.498Z,79.76
2023-01-17T22:31:27.200Z,78.66
2023-01-17T22:33:56.430Z,78.44
2023-01-17T22:36:25.707Z,76.49
2023-01-17T22:38:52.037Z,75.57
2023-01-17T22:41:21.571Z,74.71
2023-01-17T22:43:52.552Z,74.41
2023-01-17T22:46:21.916Z,76.38
2023-01-17T22:48:48.649Z,77.18
2023-01-17T22:51:17.233Z,69.99
2023-01-17T22:53:54.770Z,67.14
2023-01-17T22:56:32.275Z,65.31
2023-01-17T22:59:03.228Z,63.43
2023-01-17T23:01:32.070Z,64.12
2023-01-17T23:04:01.355Z,62.41
2023-01-17T23:06:30.269Z,61.41
2023-01-17T23:08:58.958Z,60.30
2023-01-17T23:11:40.105Z,58.83
2023-01-17T23:14:21.866Z,58.97
2023-01-17T23:17:06.600Z,60.55
2023-01-17T23:19:35.425Z,62.54
2023-01-17T23:22:16.065Z,67.87
2023-01-17T23:24:46.734Z,68.44
2023-01-17T23:27:51.395Z,66.88
2023-01-17T23:30:18.615Z,63.04
2023-01-17T23:32:48.133Z,60.83
2023-01-17T23:35:15.996Z,59.58
2023-01-17T23:38:00.866Z,56.89
2023-01-17T23:40:27.636Z,57.64
2023-01-17T23:43:12.999Z,59.41
2023-01-17T23:45:39.731Z,60.61
2023-01-17T23:48:10.874Z,64.15
2023-01-17T23:50:39.512Z,69.38
2023-01-17T23:53:06.536Z,67.29
2023-01-17T23:55:38.898Z,65.06
2023-01-17T23:58:07.735Z,62.30
